LHT7MR EDDB-EDBM
Flight info
| Callsign | LHT7MR |
|---|---|
| Flight time | 0h 19m |
| Altitude | 12000 |
| Route | SUKIP3N SUKIP Y206 BUREL |
| Aircraft | A20N/M-SDE2E3FGHIRWXY/LB1 |
Departure
| Time | 2026-05-07 23:48 |
|---|---|
| Airport | Berlin Brandenburg Airport (EDDB) |
Arrival
| Time | 2026-05-08 00:07 |
|---|---|
| Airport | Magdeburg City Airfield (EDBM) |
| Time | Latitude | Longitude | Altitude | Speed | Heading |
|---|---|---|---|---|---|
| 2026-05-07 23:42 | 52.37152 | 13.52216 | 162 ft | 0 kts | 315° |
| 2026-05-07 23:46 | 52.37155 | 13.52211 | 162 ft | 3 kts | 315° |
| 2026-05-07 23:46 | 52.37186 | 13.52161 | 162 ft | 9 kts | 315° |
| 2026-05-07 23:46 | 52.37267 | 13.52086 | 161 ft | 17 kts | 338° |
| 2026-05-07 23:46 | 52.37392 | 13.51986 | 158 ft | 23 kts | 315° |
| 2026-05-07 23:47 | 52.37440 | 13.51712 | 159 ft | 27 kts | 275° |
| 2026-05-07 23:47 | 52.37439 | 13.51394 | 159 ft | 34 kts | 250° |
| 2026-05-07 23:47 | 52.37284 | 13.50699 | 156 ft | 95 kts | 249° |
| 2026-05-07 23:47 | 52.37007 | 13.49460 | 201 ft | 129 kts | 252° |
| 2026-05-07 23:48 | 52.36705 | 13.48074 | 578 ft | 133 kts | 249° |
| 2026-05-07 23:48 | 52.36355 | 13.46633 | 1014 ft | 139 kts | 248° |
| 2026-05-07 23:48 | 52.35978 | 13.45117 | 1419 ft | 145 kts | 249° |
| 2026-05-07 23:48 | 52.35688 | 13.43554 | 1840 ft | 146 kts | 257° |
| 2026-05-07 23:49 | 52.35405 | 13.41889 | 2014 ft | 157 kts | 253° |
| 2026-05-07 23:49 | 52.35070 | 13.40086 | 2105 ft | 175 kts | 253° |
| 2026-05-07 23:49 | 52.34702 | 13.38083 | 2242 ft | 194 kts | 253° |
| 2026-05-07 23:49 | 52.34306 | 13.35860 | 2414 ft | 216 kts | 254° |
| 2026-05-07 23:50 | 52.33878 | 13.33402 | 2759 ft | 230 kts | 254° |
| 2026-05-07 23:50 | 52.33437 | 13.30849 | 3387 ft | 234 kts | 254° |
| 2026-05-07 23:50 | 52.32993 | 13.28280 | 4179 ft | 236 kts | 254° |
| 2026-05-07 23:50 | 52.32546 | 13.25708 | 5037 ft | 238 kts | 255° |
| 2026-05-07 23:51 | 52.32090 | 13.23081 | 5983 ft | 241 kts | 254° |
| 2026-05-07 23:51 | 52.31627 | 13.20412 | 6634 ft | 244 kts | 254° |
| 2026-05-07 23:51 | 52.31161 | 13.17734 | 6899 ft | 245 kts | 254° |
| 2026-05-07 23:51 | 52.30698 | 13.15087 | 7069 ft | 246 kts | 254° |
| 2026-05-07 23:52 | 52.30227 | 13.12388 | 7143 ft | 246 kts | 254° |
| 2026-05-07 23:52 | 52.29757 | 13.09699 | 7145 ft | 247 kts | 254° |
| 2026-05-07 23:52 | 52.29281 | 13.06982 | 7150 ft | 261 kts | 254° |
| 2026-05-07 23:52 | 52.28764 | 13.04033 | 7144 ft | 276 kts | 254° |
| 2026-05-07 23:53 | 52.28233 | 13.01007 | 7144 ft | 278 kts | 254° |
| 2026-05-07 23:53 | 52.27694 | 12.97948 | 7140 ft | 279 kts | 254° |
| 2026-05-07 23:53 | 52.27156 | 12.94897 | 7140 ft | 279 kts | 254° |
| 2026-05-07 23:53 | 52.26620 | 12.91863 | 7145 ft | 278 kts | 254° |
| 2026-05-07 23:54 | 52.26083 | 12.88824 | 7138 ft | 278 kts | 254° |
| 2026-05-07 23:54 | 52.25543 | 12.85784 | 7142 ft | 279 kts | 254° |
| 2026-05-07 23:54 | 52.25005 | 12.82754 | 7142 ft | 279 kts | 254° |
| 2026-05-07 23:54 | 52.24469 | 12.79741 | 7145 ft | 278 kts | 254° |
| 2026-05-07 23:55 | 52.23930 | 12.76712 | 7145 ft | 278 kts | 254° |
| 2026-05-07 23:55 | 52.23387 | 12.73673 | 7138 ft | 278 kts | 254° |
| 2026-05-07 23:55 | 52.22845 | 12.70638 | 7140 ft | 278 kts | 254° |
| 2026-05-07 23:55 | 52.22307 | 12.67633 | 7142 ft | 278 kts | 254° |
| 2026-05-07 23:56 | 52.21755 | 12.64555 | 7138 ft | 278 kts | 254° |
| 2026-05-07 23:56 | 52.21210 | 12.61526 | 7139 ft | 278 kts | 254° |
| 2026-05-07 23:56 | 52.20672 | 12.58533 | 7140 ft | 278 kts | 254° |
| 2026-05-07 23:56 | 52.20123 | 12.55488 | 7138 ft | 278 kts | 254° |
| 2026-05-07 23:57 | 52.19573 | 12.52441 | 7144 ft | 279 kts | 254° |
| 2026-05-07 23:57 | 52.19025 | 12.49408 | 7138 ft | 279 kts | 254° |
| 2026-05-07 23:57 | 52.18482 | 12.46410 | 7137 ft | 279 kts | 254° |
| 2026-05-07 23:57 | 52.17931 | 12.43376 | 7142 ft | 278 kts | 254° |
| 2026-05-07 23:58 | 52.17384 | 12.40366 | 7141 ft | 278 kts | 254° |
| 2026-05-07 23:58 | 52.16832 | 12.37330 | 7142 ft | 279 kts | 254° |
| 2026-05-07 23:58 | 52.16278 | 12.34297 | 7138 ft | 279 kts | 254° |
| 2026-05-07 23:58 | 52.15726 | 12.31272 | 7124 ft | 279 kts | 254° |
| 2026-05-07 23:59 | 52.15182 | 12.28300 | 6857 ft | 274 kts | 253° |
| 2026-05-07 23:59 | 52.14635 | 12.25311 | 6027 ft | 273 kts | 253° |
| 2026-05-07 23:59 | 52.14108 | 12.22439 | 5574 ft | 255 kts | 253° |
| 2026-05-07 23:59 | 52.13619 | 12.19777 | 5210 ft | 255 kts | 253° |
| 2026-05-08 00:00 | 52.13078 | 12.16837 | 4793 ft | 280 kts | 253° |
| 2026-05-08 00:00 | 52.12524 | 12.13833 | 4460 ft | 270 kts | 253° |
| 2026-05-08 00:00 | 52.11993 | 12.10959 | 3938 ft | 255 kts | 253° |
| 2026-05-08 00:00 | 52.11501 | 12.08308 | 3587 ft | 234 kts | 253° |
| 2026-05-08 00:01 | 52.11004 | 12.05623 | 3197 ft | 266 kts | 253° |
| 2026-05-08 00:01 | 52.10463 | 12.02700 | 2786 ft | 268 kts | 253° |
| 2026-05-08 00:01 | 52.09938 | 11.99872 | 2379 ft | 253 kts | 253° |
| 2026-05-08 00:01 | 52.09435 | 11.97167 | 2102 ft | 258 kts | 253° |
| 2026-05-08 00:02 | 52.08928 | 11.94446 | 2009 ft | 235 kts | 253° |
| 2026-05-08 00:02 | 52.08495 | 11.92120 | 2003 ft | 200 kts | 253° |
| 2026-05-08 00:02 | 52.08114 | 11.90079 | 2006 ft | 173 kts | 253° |
| 2026-05-08 00:02 | 52.07817 | 11.88181 | 2010 ft | 174 kts | 265° |
| 2026-05-08 00:03 | 52.07786 | 11.86228 | 2017 ft | 173 kts | 270° |
| 2026-05-08 00:03 | 52.07764 | 11.84333 | 2026 ft | 162 kts | 269° |
| 2026-05-08 00:03 | 52.07738 | 11.82595 | 2013 ft | 144 kts | 269° |
| 2026-05-08 00:03 | 52.07709 | 11.80996 | 2008 ft | 142 kts | 269° |
| 2026-05-08 00:04 | 52.07680 | 11.79442 | 2012 ft | 131 kts | 269° |
| 2026-05-08 00:04 | 52.07653 | 11.77960 | 1986 ft | 131 kts | 269° |
| 2026-05-08 00:04 | 52.07627 | 11.76512 | 1816 ft | 129 kts | 269° |
| 2026-05-08 00:04 | 52.07600 | 11.75056 | 1636 ft | 128 kts | 269° |
| 2026-05-08 00:05 | 52.07570 | 11.73615 | 1456 ft | 127 kts | 269° |
| 2026-05-08 00:05 | 52.07542 | 11.72182 | 1297 ft | 126 kts | 269° |
| 2026-05-08 00:05 | 52.07518 | 11.70765 | 1125 ft | 125 kts | 269° |
| 2026-05-08 00:05 | 52.07495 | 11.69353 | 971 ft | 124 kts | 269° |
| 2026-05-08 00:06 | 52.07471 | 11.67956 | 818 ft | 123 kts | 269° |
| 2026-05-08 00:06 | 52.07445 | 11.66583 | 668 ft | 123 kts | 269° |
| 2026-05-08 00:06 | 52.07418 | 11.65199 | 505 ft | 121 kts | 269° |
| 2026-05-08 00:06 | 52.07393 | 11.63820 | 325 ft | 121 kts | 269° |
| 2026-05-08 00:07 | 52.07373 | 11.62589 | 266 ft | 78 kts | 267° |
| 2026-05-08 00:07 | 52.07353 | 11.62008 | 273 ft | 30 kts | 267° |
| 2026-05-08 00:07 | 52.07366 | 11.61879 | 274 ft | 4 kts | 338° |
| 2026-05-08 00:07 | 52.07425 | 11.61894 | 273 ft | 10 kts | 20° |
| 2026-05-08 00:08 | 52.07489 | 11.61914 | 270 ft | 8 kts | 11° |
| 2026-05-08 00:08 | 52.07543 | 11.61935 | 265 ft | 7 kts | 13° |
| 2026-05-08 00:08 | 52.07617 | 11.61968 | 263 ft | 15 kts | 17° |
| 2026-05-08 00:08 | 52.07698 | 11.62007 | 265 ft | 7 kts | 7° |
| 2026-05-08 00:09 | 52.07703 | 11.62021 | 265 ft | 1 kts | 90° |
| 2026-05-08 00:09 | 52.07699 | 11.62024 | 265 ft | 0 kts | 135° |
| 2026-05-08 00:09 | 52.07696 | 11.62021 | 264 ft | 0 kts | 180° |
| 2026-05-08 00:09 | 52.07694 | 11.62018 | 264 ft | 0 kts | 200° |